Time;durP1;ratioP1;P1;durP2;ratioP2;P2;SDS_P1;SDS_P2;PMS_P1;PMS_P2;Temp;Humidity;BMP_temperature;BMP_pressure;BME280_temperature;BME280_humidity;BME280_pressure;Samples;Min_cycle;Max_cycle;Signal;HPM_P1;HPM_P2
2023/09/06 00:00:44;;;;;;;16.85;1.58;;;;;;;;;;5083869;28;20036;-72
2023/09/06 00:03:16;;;;;;;15.30;1.80;;;;;;;;;;5083033;28;20051;-73
2023/09/06 00:05:47;;;;;;;10.90;2.13;;;;;;;;;;5084084;28;20051;-74
2023/09/06 00:08:17;;;;;;;6.43;1.45;;;;;;;;;;5082313;28;20048;-72
2023/09/06 00:10:50;;;;;;;7.88;1.70;;;;;;;;;;5082871;28;20056;-72
2023/09/06 00:13:21;;;;;;;20.45;2.42;;;;;;;;;;5083531;28;20046;-73
2023/09/06 00:15:51;;;;;;;12.00;1.92;;;;;;;;;;5083354;28;20047;-72
2023/09/06 00:18:23;;;;;;;13.15;1.50;;;;;;;;;;5083780;28;20040;-72
2023/09/06 00:20:57;;;;;;;11.27;1.67;;;;;;;;;;5084035;28;20044;-72
2023/09/06 00:23:27;;;;;;;13.00;1.50;;;;;;;;;;5084164;28;20055;-72
2023/09/06 00:25:57;;;;;;;10.88;1.67;;;;;;;;;;5083547;28;20487;-72
2023/09/06 00:28:28;;;;;;;10.75;1.75;;;;;;;;;;5084163;28;20036;-73
2023/09/06 00:30:59;;;;;;;9.85;1.90;;;;;;;;;;5083231;28;20051;-71
2023/09/06 00:33:33;;;;;;;13.30;2.42;;;;;;;;;;5081014;28;20052;-72
2023/09/06 00:36:06;;;;;;;11.20;1.48;;;;;;;;;;5081831;28;20051;-72
2023/09/06 00:38:37;;;;;;;12.07;1.48;;;;;;;;;;5083323;28;20052;-72
2023/09/06 00:41:09;;;;;;;8.63;1.48;;;;;;;;;;5084097;28;20574;-72
2023/09/06 00:43:39;;;;;;;6.53;1.23;;;;;;;;;;5082737;28;20050;-71
2023/09/06 00:46:10;;;;;;;7.07;1.40;;;;;;;;;;5082194;28;20641;-71
2023/09/06 00:48:42;;;;;;;9.32;1.63;;;;;;;;;;5081671;28;20534;-71
2023/09/06 00:51:13;;;;;;;9.82;1.80;;;;;;;;;;5083456;28;20525;-73
2023/09/06 00:53:45;;;;;;;6.95;1.92;;;;;;;;;;5083178;28;20055;-72
2023/09/06 00:56:17;;;;;;;12.95;1.80;;;;;;;;;;5083137;28;20048;-71
2023/09/06 00:58:50;;;;;;;12.63;2.17;;;;;;;;;;5080972;28;20067;-74
2023/09/06 01:01:28;;;;;;;8.30;2.10;;;;;;;;;;5081433;28;20820;-72
2023/09/06 01:03:59;;;;;;;8.85;1.95;;;;;;;;;;5082435;28;20044;-72
2023/09/06 01:06:32;;;;;;;14.68;2.33;;;;;;;;;;5080519;28;20439;-71
2023/09/06 01:09:05;;;;;;;10.48;1.42;;;;;;;;;;5081822;28;20040;-72
2023/09/06 01:11:38;;;;;;;11.45;2.03;;;;;;;;;;5082190;28;20519;-73
2023/09/06 01:14:09;;;;;;;12.48;1.80;;;;;;;;;;5082342;28;20052;-73
2023/09/06 01:16:45;;;;;;;14.43;1.92;;;;;;;;;;5081766;28;20043;-73
2023/09/06 01:19:20;;;;;;;12.98;1.35;;;;;;;;;;5082331;28;20048;-73
2023/09/06 01:22:11;;;;;;;18.10;1.98;;;;;;;;;;5080233;28;20036;-73
2023/09/06 01:24:45;;;;;;;14.48;2.33;;;;;;;;;;5082200;28;20422;-72
2023/09/06 01:27:17;;;;;;;19.35;1.92;;;;;;;;;;5081498;28;20040;-72
2023/09/06 01:29:47;;;;;;;17.48;1.70;;;;;;;;;;5063483;28;20063;-72
2023/09/06 01:32:18;;;;;;;19.08;2.20;;;;;;;;;;5080271;28;20044;-72
2023/09/06 01:34:49;;;;;;;12.68;1.85;;;;;;;;;;5080623;28;20052;-73
2023/09/06 01:37:19;;;;;;;12.18;2.03;;;;;;;;;;5062605;28;20056;-73
2023/09/06 01:39:49;;;;;;;17.55;1.98;;;;;;;;;;5060552;28;20053;-72
2023/09/06 01:42:22;;;;;;;15.73;1.88;;;;;;;;;;5062018;28;20399;-72
2023/09/06 01:44:53;;;;;;;14.73;1.50;;;;;;;;;;5062547;28;20044;-72
2023/09/06 01:47:25;;;;;;;8.90;1.70;;;;;;;;;;5059386;28;20048;-72
2023/09/06 01:49:57;;;;;;;17.30;1.80;;;;;;;;;;5061485;28;20616;-73
2023/09/06 01:52:27;;;;;;;16.25;7.60;;;;;;;;;;5060586;28;20044;-73
2023/09/06 01:54:58;;;;;;;19.73;7.30;;;;;;;;;;5043968;28;20044;-72
2023/09/06 01:57:29;;;;;;;17.13;2.80;;;;;;;;;;5061715;28;20056;-72
2023/09/06 02:00:00;;;;;;;9.65;1.58;;;;;;;;;;5060380;28;20396;-73
2023/09/06 02:02:41;;;;;;;15.50;2.05;;;;;;;;;;5063353;28;20052;-72
2023/09/06 02:05:12;;;;;;;13.02;2.10;;;;;;;;;;5061052;28;20860;-72
2023/09/06 02:07:45;;;;;;;12.82;2.50;;;;;;;;;;5061543;28;20055;-72
2023/09/06 02:10:15;;;;;;;13.15;2.50;;;;;;;;;;5061656;28;20056;-73
2023/09/06 02:12:46;;;;;;;17.33;3.45;;;;;;;;;;5060325;28;20189;-72
2023/09/06 02:15:16;;;;;;;24.45;4.22;;;;;;;;;;5060705;28;20056;-72
2023/09/06 02:17:48;;;;;;;18.58;4.57;;;;;;;;;;5062576;28;20419;-73
2023/09/06 02:20:21;;;;;;;17.63;2.15;;;;;;;;;;5062357;28;20060;-73
2023/09/06 02:22:56;;;;;;;11.52;1.80;;;;;;;;;;5061124;28;20068;-72
2023/09/06 02:25:31;;;;;;;7.22;2.33;;;;;;;;;;5063336;28;20044;-72
2023/09/06 02:28:06;;;;;;;11.25;2.22;;;;;;;;;;5065049;28;20355;-72
2023/09/06 02:30:36;;;;;;;;;;;;;;;;;;5066141;28;20063;-73
2023/09/06 02:33:14;;;;;;;11.80;2.17;;;;;;;;;;5065463;28;19928;-72
2023/09/06 02:35:45;;;;;;;5.90;1.02;;;;;;;;;;5065131;28;20051;-72
2023/09/06 02:38:16;;;;;;;8.00;1.75;;;;;;;;;;5064215;28;20056;-72
2023/09/06 02:40:46;;;;;;;12.05;1.75;;;;;;;;;;5065352;28;20059;-72
2023/09/06 02:43:16;;;;;;;;;;;;;;;;;;5065759;28;20648;-72
2023/09/06 02:45:49;;;;;;;9.32;1.92;;;;;;;;;;5063418;28;19924;-73
2023/09/06 02:48:21;;;;;;;13.57;2.13;;;;;;;;;;5065435;28;20055;-72
2023/09/06 02:50:53;;;;;;;11.57;2.50;;;;;;;;;;5065087;28;20053;-72
2023/09/06 02:53:26;;;;;;;10.52;2.42;;;;;;;;;;5065430;28;20815;-72
2023/09/06 02:55:58;;;;;;;14.25;1.95;;;;;;;;;;5065234;28;20048;-72
2023/09/06 02:58:35;;;;;;;6.22;1.90;;;;;;;;;;5063402;28;20056;-72
2023/09/06 03:01:07;;;;;;;17.65;2.47;;;;;;;;;;5064891;28;20045;-72
2023/09/06 03:03:39;;;;;;;13.43;1.52;;;;;;;;;;5063168;28;20115;-72
2023/09/06 03:06:17;;;;;;;15.57;2.03;;;;;;;;;;5063710;28;20052;-73
2023/09/06 03:08:48;;;;;;;9.30;1.58;;;;;;;;;;5063346;28;20053;-72
2023/09/06 03:11:19;;;;;;;11.60;1.42;;;;;;;;;;5064293;28;20059;-72
2023/09/06 03:13:55;;;;;;;10.88;2.78;;;;;;;;;;5063988;28;20044;-72
2023/09/06 03:16:27;;;;;;;20.23;2.08;;;;;;;;;;5065234;28;20052;-72
2023/09/06 03:18:58;;;;;;;13.50;1.88;;;;;;;;;;5064811;28;20052;-72
2023/09/06 03:21:30;;;;;;;16.20;1.67;;;;;;;;;;5065296;28;20052;-72
2023/09/06 03:24:00;;;;;;;15.40;2.67;;;;;;;;;;5065135;28;20514;-76
2023/09/06 03:26:30;;;;;;;7.40;1.38;;;;;;;;;;5064245;28;20040;-73
2023/09/06 03:29:02;;;;;;;11.10;1.92;;;;;;;;;;5062844;28;20052;-72
2023/09/06 03:31:34;;;;;;;8.18;1.35;;;;;;;;;;5064180;28;20759;-71
2023/09/06 03:34:05;;;;;;;21.67;1.92;;;;;;;;;;5064773;28;20048;-71
2023/09/06 03:36:35;;;;;;;5.32;1.33;;;;;;;;;;5062693;28;20059;-72
2023/09/06 03:39:06;;;;;;;8.07;1.30;;;;;;;;;;5064365;28;20040;-71
2023/09/06 03:41:37;;;;;;;11.82;1.58;;;;;;;;;;5064892;28;20418;-71
2023/09/06 03:44:08;;;;;;;12.88;1.55;;;;;;;;;;5064490;28;20053;-71
2023/09/06 03:46:39;;;;;;;11.77;1.92;;;;;;;;;;5063699;28;20056;-71
2023/09/06 03:49:10;;;;;;;14.95;1.67;;;;;;;;;;5063760;28;20048;-71
2023/09/06 03:51:42;;;;;;;18.65;2.05;;;;;;;;;;5064085;28;20048;-71
2023/09/06 03:54:13;;;;;;;8.30;1.58;;;;;;;;;;5064094;28;20503;-71
2023/09/06 03:56:43;;;;;;;8.52;1.40;;;;;;;;;;5062294;28;20060;-72
2023/09/06 03:59:15;;;;;;;11.32;1.90;;;;;;;;;;5062486;28;20443;-71
2023/09/06 04:01:47;;;;;;;12.10;1.50;;;;;;;;;;5062046;28;20060;-71
2023/09/06 04:04:19;;;;;;;11.00;2.35;;;;;;;;;;5062374;28;20052;-71
2023/09/06 04:06:49;;;;;;;23.42;2.10;;;;;;;;;;5063573;28;20515;-71
2023/09/06 04:09:22;;;;;;;9.98;1.67;;;;;;;;;;5064019;28;20048;-71
2023/09/06 04:11:52;;;;;;;9.52;1.23;;;;;;;;;;5062319;28;20044;-71
2023/09/06 04:14:23;;;;;;;12.18;2.10;;;;;;;;;;5063900;28;20064;-71
2023/09/06 04:16:55;;;;;;;15.77;1.60;;;;;;;;;;5062093;28;20083;-72
2023/09/06 04:19:25;;;;;;;13.88;1.98;;;;;;;;;;5063188;28;20048;-71
2023/09/06 04:21:56;;;;;;;6.90;1.15;;;;;;;;;;5061328;28;20060;-71
2023/09/06 04:24:28;;;;;;;7.20;1.50;;;;;;;;;;5061524;28;20060;-72
2023/09/06 04:26:59;;;;;;;10.23;1.75;;;;;;;;;;5061925;28;20381;-70
2023/09/06 04:29:30;;;;;;;18.15;2.17;;;;;;;;;;5061893;28;20052;-72
2023/09/06 04:32:03;;;;;;;11.85;1.65;;;;;;;;;;5061945;28;20542;-71
2023/09/06 04:34:35;;;;;;;11.80;1.90;;;;;;;;;;5061436;28;20048;-71
2023/09/06 04:37:11;;;;;;;16.30;1.52;;;;;;;;;;5061010;28;20056;-71
2023/09/06 04:39:43;;;;;;;8.48;1.35;;;;;;;;;;5061845;28;20078;-72
2023/09/06 04:42:14;;;;;;;19.52;2.00;;;;;;;;;;5062052;28;20427;-71
2023/09/06 04:44:46;;;;;;;14.13;1.77;;;;;;;;;;5061423;28;20423;-71
2023/09/06 04:47:18;;;;;;;12.35;1.98;;;;;;;;;;5061277;28;20063;-71
2023/09/06 04:49:49;;;;;;;17.45;2.67;;;;;;;;;;5063127;28;20611;-71
2023/09/06 04:52:20;;;;;;;16.13;2.00;;;;;;;;;;5061971;28;20060;-72
2023/09/06 04:54:52;;;;;;;15.82;1.70;;;;;;;;;;5061290;28;20052;-72
2023/09/06 04:57:25;;;;;;;21.52;1.88;;;;;;;;;;5060599;28;20056;-71
2023/09/06 04:59:56;;;;;;;13.70;2.20;;;;;;;;;;5060915;28;20056;-71
2023/09/06 05:02:26;;;;;;;11.88;1.60;;;;;;;;;;5061182;28;20051;-71
2023/09/06 05:04:59;;;;;;;18.10;2.30;;;;;;;;;;5060353;28;20044;-71
2023/09/06 05:07:30;;;;;;;14.57;1.30;;;;;;;;;;5060596;28;20057;-71
2023/09/06 05:10:03;;;;;;;18.17;2.70;;;;;;;;;;5060879;28;20488;-71
2023/09/06 05:12:36;;;;;;;14.93;1.30;;;;;;;;;;5060607;28;20507;-71
2023/09/06 05:15:08;;;;;;;17.30;2.10;;;;;;;;;;5060608;28;20052;-72
2023/09/06 05:17:40;;;;;;;18.80;2.35;;;;;;;;;;5060823;28;20440;-70
2023/09/06 05:20:33;;;;;;;15.98;1.90;;;;;;;;;;5062088;28;20422;-72
2023/09/06 05:23:15;;;;;;;23.10;2.17;;;;;;;;;;5060252;28;20414;-72
2023/09/06 05:25:46;;;;;;;19.60;1.80;;;;;;;;;;5061148;28;20428;-71
2023/09/06 05:28:29;;;;;;;23.17;1.95;;;;;;;;;;5060986;28;20048;-71
2023/09/06 05:31:03;;;;;;;18.02;2.30;;;;;;;;;;5061316;28;20048;-71
2023/09/06 05:33:39;;;;;;;24.38;1.90;;;;;;;;;;5060514;28;20056;-72
2023/09/06 05:36:10;;;;;;;19.20;1.77;;;;;;;;;;5062341;28;20041;-72
2023/09/06 05:38:43;;;;;;;18.13;2.08;;;;;;;;;;5060516;28;20056;-71
2023/09/06 05:41:15;;;;;;;32.72;2.50;;;;;;;;;;5060875;28;20053;-72
2023/09/06 05:43:46;;;;;;;15.40;2.13;;;;;;;;;;5061929;28;20051;-72
2023/09/06 05:46:17;;;;;;;16.05;1.92;;;;;;;;;;5060659;28;20412;-71
2023/09/06 05:49:09;;;;;;;18.55;2.72;;;;;;;;;;5060486;28;20052;-72
2023/09/06 05:51:44;;;;;;;16.20;1.95;;;;;;;;;;5060540;28;20404;-71
2023/09/06 05:54:15;;;;;;;16.33;1.65;;;;;;;;;;5059876;28;20052;-72
2023/09/06 05:56:46;;;;;;;16.75;1.88;;;;;;;;;;5060011;28;20052;-73
2023/09/06 05:59:19;;;;;;;13.98;1.70;;;;;;;;;;5060344;28;20507;-71
2023/09/06 06:01:51;;;;;;;13.70;1.38;;;;;;;;;;5061453;28;20052;-71
2023/09/06 06:04:21;;;;;;;14.07;2.28;;;;;;;;;;5061613;28;20049;-72
2023/09/06 06:06:52;;;;;;;17.45;2.33;;;;;;;;;;5060967;28;20052;-72
2023/09/06 06:09:25;;;;;;;24.33;2.72;;;;;;;;;;5061691;28;20060;-71
2023/09/06 06:11:56;;;;;;;21.13;2.20;;;;;;;;;;5061658;28;20040;-71
2023/09/06 06:14:28;;;;;;;18.00;1.85;;;;;;;;;;5061550;28;20078;-72
2023/09/06 06:16:58;;;;;;;16.65;2.50;;;;;;;;;;5061400;28;20044;-72
2023/09/06 06:19:29;;;;;;;16.10;1.77;;;;;;;;;;5060927;28;20523;-72
2023/09/06 06:22:03;;;;;;;25.08;2.75;;;;;;;;;;5061432;28;20051;-72
2023/09/06 06:24:37;;;;;;;18.20;2.00;;;;;;;;;;5061842;28;20865;-72
2023/09/06 06:27:07;;;;;;;13.85;2.03;;;;;;;;;;5061251;28;20048;-70
2023/09/06 06:29:39;;;;;;;16.17;2.28;;;;;;;;;;5061261;28;20048;-72
2023/09/06 06:32:10;;;;;;;12.50;1.92;;;;;;;;;;5061651;28;20517;-71
2023/09/06 06:34:43;;;;;;;18.05;1.50;;;;;;;;;;5061482;28;20048;-71
2023/09/06 06:37:13;;;;;;;14.85;1.65;;;;;;;;;;5062039;28;20056;-71
2023/09/06 06:39:44;;;;;;;18.23;1.65;;;;;;;;;;5061858;28;20386;-72
2023/09/06 06:42:15;;;;;;;17.50;2.17;;;;;;;;;;5061583;28;20514;-72
2023/09/06 06:44:55;;;;;;;15.25;2.42;;;;;;;;;;5059587;28;20051;-71
2023/09/06 06:47:26;;;;;;;17.70;1.75;;;;;;;;;;5060999;28;20048;-72
2023/09/06 06:50:03;;;;;;;21.20;2.63;;;;;;;;;;5061500;28;20052;-71
2023/09/06 06:52:36;;;;;;;18.60;1.73;;;;;;;;;;5060659;28;20419;-72
2023/09/06 06:55:06;;;;;;;15.52;1.55;;;;;;;;;;5061934;28;20622;-72
2023/09/06 06:57:37;;;;;;;13.65;1.63;;;;;;;;;;5061519;28;20033;-71
2023/09/06 07:00:11;;;;;;;13.38;1.50;;;;;;;;;;5061274;28;21180;-72
2023/09/06 07:02:42;;;;;;;13.35;2.53;;;;;;;;;;5059483;28;20519;-72
2023/09/06 07:05:13;;;;;;;19.92;2.35;;;;;;;;;;5061081;28;20055;-71
2023/09/06 07:07:43;;;;;;;16.98;1.92;;;;;;;;;;5061644;28;20045;-71
2023/09/06 07:10:14;;;;;;;16.77;1.73;;;;;;;;;;5061620;28;20411;-71
2023/09/06 07:12:45;;;;;;;10.68;1.30;;;;;;;;;;5064908;28;20044;-72
2023/09/06 07:15:16;;;;;;;13.85;1.50;;;;;;;;;;5064520;28;20411;-72
2023/09/06 07:17:45;;;;;;;14.85;1.95;;;;;;;;;;5064118;28;20067;-72
2023/09/06 07:20:16;;;;;;;21.20;2.17;;;;;;;;;;5065107;28;20503;-72
2023/09/06 07:22:47;;;;;;;20.77;1.77;;;;;;;;;;5064516;28;20061;-71
2023/09/06 07:25:18;;;;;;;19.20;1.92;;;;;;;;;;5064701;28;20044;-72
2023/09/06 07:27:47;;;;;;;;;;;;;;;;;;5065151;28;20044;-71
2023/09/06 07:30:20;;;;;;;11.07;1.52;;;;;;;;;;5064360;28;20070;-72
2023/09/06 07:32:53;;;;;;;14.63;1.50;;;;;;;;;;5064658;28;20674;-71
2023/09/06 07:35:23;;;;;;;13.15;1.60;;;;;;;;;;5064931;28;20646;-72
2023/09/06 07:37:55;;;;;;;15.82;1.67;;;;;;;;;;5064447;28;20055;-72
2023/09/06 07:40:25;;;;;;;17.95;1.98;;;;;;;;;;5063843;28;20045;-72
2023/09/06 07:42:55;;;;;;;;;;;;;;;;;;5064611;28;20538;-78
2023/09/06 07:45:25;;;;;;;16.85;1.55;;;;;;;;;;5062972;28;19931;-72
2023/09/06 07:47:55;;;;;;;14.88;1.50;;;;;;;;;;5064363;28;20586;-71
2023/09/06 07:50:25;;;;;;;14.85;1.65;;;;;;;;;;5063720;28;20049;-71
2023/09/06 07:52:55;;;;;;;13.07;1.35;;;;;;;;;;5063656;28;20055;-72
2023/09/06 07:55:27;;;;;;;32.03;2.35;;;;;;;;;;5063660;28;20522;-72
2023/09/06 07:57:58;;;;;;;15.73;1.85;;;;;;;;;;5064261;28;20047;-72
2023/09/06 08:00:30;;;;;;;19.27;2.70;;;;;;;;;;5063880;28;20055;-71
2023/09/06 08:03:01;;;;;;;10.40;1.65;;;;;;;;;;5063784;28;20415;-72
2023/09/06 08:05:35;;;;;;;14.73;1.70;;;;;;;;;;5063877;28;20115;-72
2023/09/06 08:08:09;;;;;;;12.70;1.90;;;;;;;;;;5063026;28;20052;-72
2023/09/06 08:10:42;;;;;;;11.15;1.25;;;;;;;;;;5064394;28;20044;-71
2023/09/06 08:13:12;;;;;;;18.85;2.08;;;;;;;;;;5063364;28;20048;-72
2023/09/06 08:15:44;;;;;;;20.05;2.00;;;;;;;;;;5063198;28;20060;-72
2023/09/06 08:18:14;;;;;;;15.35;1.77;;;;;;;;;;5063973;28;20053;-72
2023/09/06 08:20:45;;;;;;;12.52;1.42;;;;;;;;;;5063562;28;20507;-71
2023/09/06 08:23:15;;;;;;;14.23;1.63;;;;;;;;;;5062380;28;20056;-72
2023/09/06 08:25:46;;;;;;;9.77;1.90;;;;;;;;;;5062364;28;20052;-72
2023/09/06 08:28:18;;;;;;;16.23;1.67;;;;;;;;;;5063288;28;20052;-72
2023/09/06 08:30:49;;;;;;;11.90;1.55;;;;;;;;;;5063376;28;20048;-72
2023/09/06 08:33:20;;;;;;;9.20;1.48;;;;;;;;;;5062493;28;20044;-72
2023/09/06 08:35:50;;;;;;;7.25;1.65;;;;;;;;;;5064006;28;20059;-71
2023/09/06 08:38:20;;;;;;;12.15;1.67;;;;;;;;;;5062903;28;20056;-71
2023/09/06 08:40:50;;;;;;;;;;;;;;;;;;5063389;28;20526;-76
2023/09/06 08:43:24;;;;;;;18.38;1.83;;;;;;;;;;5062780;28;19931;-72
2023/09/06 08:45:55;;;;;;;19.88;1.90;;;;;;;;;;5062642;28;20056;-72
2023/09/06 08:48:27;;;;;;;12.40;2.20;;;;;;;;;;5063087;28;20071;-72
2023/09/06 08:50:59;;;;;;;9.73;1.73;;;;;;;;;;5062901;28;20052;-72
2023/09/06 08:53:34;;;;;;;5.97;1.48;;;;;;;;;;5062463;28;20624;-72
2023/09/06 08:56:07;;;;;;;16.48;1.90;;;;;;;;;;5061093;28;20426;-72
2023/09/06 08:58:37;;;;;;;10.85;1.63;;;;;;;;;;5063051;28;20071;-71
2023/09/06 09:01:08;;;;;;;9.40;1.98;;;;;;;;;;5062547;28;20511;-72
2023/09/06 09:03:39;;;;;;;10.07;1.52;;;;;;;;;;5062701;28;20057;-71
2023/09/06 09:06:10;;;;;;;10.55;1.40;;;;;;;;;;5062768;28;20055;-72
2023/09/06 09:08:40;;;;;;;9.63;1.25;;;;;;;;;;5063128;28;20407;-71
2023/09/06 09:11:11;;;;;;;11.85;1.60;;;;;;;;;;5062353;28;20059;-71
2023/09/06 09:13:44;;;;;;;13.98;1.85;;;;;;;;;;5060940;28;20041;-72
2023/09/06 09:16:17;;;;;;;14.57;1.90;;;;;;;;;;5061762;28;20526;-72
2023/09/06 09:18:49;;;;;;;15.27;2.58;;;;;;;;;;5061639;28;20523;-71
2023/09/06 09:21:20;;;;;;;5.72;1.40;;;;;;;;;;5061197;28;20636;-72
2023/09/06 09:23:57;;;;;;;9.15;1.75;;;;;;;;;;5062547;28;20052;-72
2023/09/06 09:26:28;;;;;;;26.42;2.35;;;;;;;;;;5062237;28;20044;-72
2023/09/06 09:29:03;;;;;;;48.42;3.22;;;;;;;;;;5062026;28;20047;-74
2023/09/06 09:31:33;;;;;;;56.28;3.30;;;;;;;;;;5062574;28;20044;-72
2023/09/06 09:34:04;;;;;;;49.30;3.78;;;;;;;;;;5061517;28;20495;-72
2023/09/06 09:36:35;;;;;;;18.02;2.95;;;;;;;;;;5062114;28;20049;-71
2023/09/06 09:39:13;;;;;;;96.95;4.15;;;;;;;;;;5061624;28;20048;-72
2023/09/06 09:41:44;;;;;;;109.93;4.10;;;;;;;;;;5062437;28;20067;-72
2023/09/06 09:44:28;;;;;;;92.65;3.67;;;;;;;;;;5061787;28;20044;-71
2023/09/06 09:47:11;;;;;;;134.40;3.70;;;;;;;;;;5061822;28;20415;-71
2023/09/06 09:50:02;;;;;;;108.20;3.42;;;;;;;;;;5061953;28;20048;-72
2023/09/06 09:52:34;;;;;;;80.00;2.67;;;;;;;;;;5061816;28;20049;-72
2023/09/06 09:55:06;;;;;;;128.57;4.50;;;;;;;;;;5061952;28;20044;-73
2023/09/06 09:57:39;;;;;;;82.18;2.83;;;;;;;;;;5062247;28;20041;-74
2023/09/06 10:00:12;;;;;;;62.22;3.50;;;;;;;;;;5060271;28;20049;-71
2023/09/06 10:02:46;;;;;;;57.75;2.97;;;;;;;;;;5060936;28;20063;-73
2023/09/06 10:05:17;;;;;;;45.65;2.60;;;;;;;;;;5061682;28;20045;-72
2023/09/06 10:07:49;;;;;;;75.30;4.03;;;;;;;;;;5061376;28;20392;-71
2023/09/06 10:10:21;;;;;;;67.38;3.63;;;;;;;;;;5061732;28;20491;-75
2023/09/06 10:12:53;;;;;;;54.28;3.00;;;;;;;;;;5061604;28;20617;-72
2023/09/06 10:15:23;;;;;;;89.50;3.33;;;;;;;;;;5061887;28;20049;-72
2023/09/06 10:17:58;;;;;;;26.15;2.55;;;;;;;;;;5061554;28;20048;-72
2023/09/06 10:20:32;;;;;;;83.40;3.15;;;;;;;;;;5059831;28;20162;-76
2023/09/06 10:23:04;;;;;;;80.38;4.78;;;;;;;;;;5075843;28;20553;-72
2023/09/06 10:25:43;;;;;;;73.63;3.13;;;;;;;;;;5082310;28;20051;-72
2023/09/06 10:28:14;;;;;;;103.65;3.38;;;;;;;;;;5081650;28;20595;-73
2023/09/06 10:30:55;;;;;;;94.55;3.20;;;;;;;;;;5081253;28;20052;-72
2023/09/06 10:33:37;;;;;;;30.23;2.60;;;;;;;;;;5081094;28;20391;-73
2023/09/06 10:36:10;;;;;;;54.75;3.75;;;;;;;;;;5081462;28;20052;-72
2023/09/06 10:38:54;;;;;;;59.40;4.00;;;;;;;;;;5081843;28;20051;-72
2023/09/06 10:41:26;;;;;;;127.63;4.75;;;;;;;;;;5081427;28;20044;-72
2023/09/06 10:44:03;;;;;;;57.55;3.45;;;;;;;;;;5081269;28;20055;-72
2023/09/06 10:46:35;;;;;;;29.13;2.90;;;;;;;;;;5083635;28;20048;-72
2023/09/06 10:49:20;;;;;;;30.80;2.65;;;;;;;;;;5086167;28;20056;-72
2023/09/06 10:52:08;;;;;;;13.10;2.30;;;;;;;;;;5085027;28;20040;-73
2023/09/06 10:54:41;;;;;;;7.15;2.22;;;;;;;;;;5085408;28;20047;-72
2023/09/06 10:57:16;;;;;;;4.72;2.00;;;;;;;;;;5085786;28;20079;-73
2023/09/06 11:00:12;;;;;;;8.00;2.53;;;;;;;;;;5085841;28;20048;-72
2023/09/06 11:02:44;;;;;;;5.75;2.28;;;;;;;;;;5085672;28;20048;-73
2023/09/06 11:05:35;;;;;;;14.43;2.30;;;;;;;;;;5085796;28;20036;-73
2023/09/06 11:08:08;;;;;;;9.90;1.98;;;;;;;;;;5085067;28;20063;-73
2023/09/06 11:10:38;;;;;;;11.88;1.60;;;;;;;;;;5084990;28;20395;-73
2023/09/06 11:13:14;;;;;;;9.18;1.55;;;;;;;;;;5084513;28;20059;-73
2023/09/06 11:15:48;;;;;;;11.98;2.47;;;;;;;;;;5085460;28;20043;-73
2023/09/06 11:18:19;;;;;;;8.93;1.70;;;;;;;;;;5085649;28;20040;-77
2023/09/06 11:20:50;;;;;;;13.70;1.83;;;;;;;;;;5083682;28;20048;-73
2023/09/06 11:23:22;;;;;;;12.10;2.35;;;;;;;;;;5084445;28;20052;-74
2023/09/06 11:25:58;;;;;;;9.43;1.40;;;;;;;;;;5084719;28;20073;-73
2023/09/06 11:28:30;;;;;;;14.48;2.10;;;;;;;;;;5085049;28;20044;-72
2023/09/06 11:31:04;;;;;;;13.93;2.88;;;;;;;;;;5084628;28;20051;-72
2023/09/06 11:33:36;;;;;;;16.30;2.75;;;;;;;;;;5084046;28;20840;-73
2023/09/06 11:36:11;;;;;;;14.68;2.28;;;;;;;;;;5084773;28;20048;-73
2023/09/06 11:38:43;;;;;;;16.10;2.22;;;;;;;;;;5083439;28;20043;-74
2023/09/06 11:41:15;;;;;;;16.75;2.03;;;;;;;;;;5083783;28;20499;-73
2023/09/06 11:43:48;;;;;;;16.50;2.03;;;;;;;;;;5084774;28;20043;-73
2023/09/06 11:46:20;;;;;;;14.95;2.25;;;;;;;;;;5084207;28;20052;-75
2023/09/06 11:48:53;;;;;;;14.23;2.10;;;;;;;;;;5083848;28;20395;-73
2023/09/06 11:51:25;;;;;;;10.48;2.10;;;;;;;;;;5084446;28;20466;-74
2023/09/06 11:54:00;;;;;;;14.55;2.20;;;;;;;;;;5083996;28;20529;-74
2023/09/06 11:56:36;;;;;;;10.48;1.55;;;;;;;;;;5083886;28;20048;-79
2023/09/06 11:59:12;;;;;;;10.13;1.65;;;;;;;;;;5084547;28;20490;-73
2023/09/06 12:01:44;;;;;;;11.80;1.50;;;;;;;;;;5084838;28;20407;-73
2023/09/06 12:04:18;;;;;;;15.45;1.85;;;;;;;;;;5066215;28;20056;-81
2023/09/06 12:06:51;;;;;;;12.02;1.85;;;;;;;;;;5084484;28;20048;-75
2023/09/06 12:09:23;;;;;;;17.23;3.38;;;;;;;;;;5083225;28;20044;-74
2023/09/06 12:11:54;;;;;;;19.45;2.10;;;;;;;;;;5083763;28;20079;-74
2023/09/06 12:14:24;;;;;;;13.85;1.90;;;;;;;;;;5083774;28;20051;-73
2023/09/06 12:16:57;;;;;;;15.40;2.03;;;;;;;;;;5084439;28;20052;-73
2023/09/06 12:19:28;;;;;;;14.75;1.90;;;;;;;;;;5083599;28;20052;-75
2023/09/06 12:21:58;;;;;;;8.20;1.27;;;;;;;;;;5083913;28;20608;-76
2023/09/06 12:24:28;;;;;;;16.10;2.00;;;;;;;;;;5084331;28;20052;-72
2023/09/06 12:26:59;;;;;;;13.15;2.13;;;;;;;;;;5084404;28;20052;-75
2023/09/06 12:29:30;;;;;;;15.98;1.80;;;;;;;;;;5083976;28;20059;-73
2023/09/06 12:32:04;;;;;;;11.80;2.53;;;;;;;;;;5083231;28;20051;-74
2023/09/06 12:34:36;;;;;;;16.33;2.10;;;;;;;;;;5085754;28;20107;-73
2023/09/06 12:37:06;;;;;;;10.15;1.77;;;;;;;;;;5083745;28;20052;-73
2023/09/06 12:39:36;;;;;;;8.20;1.50;;;;;;;;;;5083233;28;20048;-75
2023/09/06 12:42:07;;;;;;;10.25;1.83;;;;;;;;;;5083135;28;20075;-74
2023/09/06 12:44:39;;;;;;;8.02;1.40;;;;;;;;;;5082700;28;20044;-74
2023/09/06 12:47:14;;;;;;;11.15;1.85;;;;;;;;;;5083085;28;20051;-74
2023/09/06 12:49:45;;;;;;;10.73;1.80;;;;;;;;;;5082966;28;20044;-74
2023/09/06 12:52:20;;;;;;;11.90;1.85;;;;;;;;;;5083710;28;20059;-75
2023/09/06 12:54:53;;;;;;;14.25;1.80;;;;;;;;;;5083074;28;20056;-74
2023/09/06 12:57:24;;;;;;;8.40;1.52;;;;;;;;;;5084149;28;20056;-74
2023/09/06 12:59:58;;;;;;;8.13;1.67;;;;;;;;;;5083586;28;20056;-73
2023/09/06 13:02:29;;;;;;;8.95;1.50;;;;;;;;;;5082299;28;20056;-75
2023/09/06 13:05:01;;;;;;;9.18;1.02;;;;;;;;;;5082826;28;20051;-74
2023/09/06 13:07:33;;;;;;;10.18;1.83;;;;;;;;;;5080842;28;20036;-73
2023/09/06 13:10:05;;;;;;;11.10;1.52;;;;;;;;;;5082500;28;20501;-74
2023/09/06 13:12:35;;;;;;;12.73;1.67;;;;;;;;;;5082415;28;20052;-74
2023/09/06 13:15:08;;;;;;;8.35;1.52;;;;;;;;;;5082899;28;20402;-75
2023/09/06 13:17:39;;;;;;;9.45;1.48;;;;;;;;;;5064250;28;20063;-74
2023/09/06 13:20:13;;;;;;;5.65;1.15;;;;;;;;;;5081958;28;20054;-74
2023/09/06 13:22:44;;;;;;;14.35;1.92;;;;;;;;;;5082143;28;20052;-75
2023/09/06 13:25:14;;;;;;;9.77;1.30;;;;;;;;;;5082055;28;20082;-82
2023/09/06 13:27:46;;;;;;;7.07;1.27;;;;;;;;;;5082466;28;20411;-75
2023/09/06 13:30:17;;;;;;;8.90;1.92;;;;;;;;;;5082535;28;20430;-75
2023/09/06 13:32:47;;;;;;;7.30;1.38;;;;;;;;;;5082116;28;20036;-74
2023/09/06 13:35:18;;;;;;;7.25;1.35;;;;;;;;;;5082916;28;20044;-74
2023/09/06 13:37:49;;;;;;;5.57;1.40;;;;;;;;;;5081945;28;20529;-75
2023/09/06 13:40:21;;;;;;;7.68;1.52;;;;;;;;;;5082109;28;20391;-73
2023/09/06 13:42:51;;;;;;;12.73;3.17;;;;;;;;;;5082359;28;20410;-75
2023/09/06 13:45:22;;;;;;;4.55;1.50;;;;;;;;;;5080544;28;20092;-72
2023/09/06 13:47:52;;;;;;;8.40;1.60;;;;;;;;;;5080155;28;20503;-71
2023/09/06 13:50:23;;;;;;;7.68;1.20;;;;;;;;;;5080085;28;20052;-72
2023/09/06 13:52:54;;;;;;;6.75;1.20;;;;;;;;;;5081165;28;20044;-71
2023/09/06 13:55:25;;;;;;;4.75;1.20;;;;;;;;;;5081041;28;20533;-71
2023/09/06 13:57:56;;;;;;;9.55;1.50;;;;;;;;;;5064570;28;20052;-72
2023/09/06 14:00:26;;;;;;;8.90;1.45;;;;;;;;;;5081920;28;20055;-78
2023/09/06 14:02:57;;;;;;;5.75;1.17;;;;;;;;;;5082119;28;20071;-79
2023/09/06 14:05:29;;;;;;;7.65;1.17;;;;;;;;;;5082207;28;21159;-75
2023/09/06 14:08:01;;;;;;;6.93;1.30;;;;;;;;;;5080495;28;20052;-79
2023/09/06 14:10:31;;;;;;;7.93;1.63;;;;;;;;;;5081479;28;20044;-72
2023/09/06 14:13:02;;;;;;;4.63;1.30;;;;;;;;;;5082733;28;20499;-79
2023/09/06 14:15:36;;;;;;;8.82;1.30;;;;;;;;;;5080344;28;20052;-73
2023/09/06 14:18:07;;;;;;;7.35;1.42;;;;;;;;;;5081865;28;20055;-73
2023/09/06 14:20:38;;;;;;;6.78;1.05;;;;;;;;;;5081309;28;20040;-73
2023/09/06 14:23:08;;;;;;;10.07;1.38;;;;;;;;;;5085846;28;20048;-79
2023/09/06 14:25:42;;;;;;;7.18;1.90;;;;;;;;;;5085400;28;20051;-72
2023/09/06 14:28:13;;;;;;;5.07;1.20;;;;;;;;;;5086016;28;20044;-73
2023/09/06 14:30:47;;;;;;;8.90;1.60;;;;;;;;;;5086377;28;20052;-75
2023/09/06 14:33:18;;;;;;;4.22;0.90;;;;;;;;;;5086320;28;20058;-76
2023/09/06 14:35:48;;;;;;;5.68;1.35;;;;;;;;;;5083877;28;20048;-74
2023/09/06 14:38:21;;;;;;;3.90;1.30;;;;;;;;;;5086073;28;20052;-73
2023/09/06 14:40:51;;;;;;;9.60;1.75;;;;;;;;;;5089462;28;20051;-73
2023/09/06 14:43:23;;;;;;;7.95;1.17;;;;;;;;;;5085467;28;20043;-76
2023/09/06 14:46:02;;;;;;;3.20;0.85;;;;;;;;;;5085316;28;20419;-72
2023/09/06 14:48:33;;;;;;;5.53;1.08;;;;;;;;;;5085080;28;20044;-75
2023/09/06 14:51:04;;;;;;;6.72;1.30;;;;;;;;;;5085216;28;20802;-73
2023/09/06 14:53:35;;;;;;;7.80;1.13;;;;;;;;;;5085804;28;20517;-73
2023/09/06 14:56:07;;;;;;;5.32;1.50;;;;;;;;;;5085593;28;20047;-73
2023/09/06 14:58:39;;;;;;;6.05;1.25;;;;;;;;;;5085181;28;20044;-72
2023/09/06 15:01:11;;;;;;;7.78;1.52;;;;;;;;;;5084948;28;20074;-76
2023/09/06 15:03:47;;;;;;;5.68;1.02;;;;;;;;;;5083076;28;20044;-76
2023/09/06 15:06:18;;;;;;;5.70;1.23;;;;;;;;;;5084192;28;20052;-74